createdAt,value
2018-06-23T00:01:29.500Z,13.90
2018-06-23T00:06:21.116Z,13.80
2018-06-23T00:11:12.008Z,13.80
2018-06-23T00:16:02.902Z,13.80
2018-06-23T00:20:53.799Z,13.70
2018-06-23T00:25:44.691Z,13.70
2018-06-23T00:30:35.575Z,13.60
2018-06-23T00:35:26.472Z,13.60
2018-06-23T00:40:17.359Z,13.60
2018-06-23T00:45:09.020Z,13.50
2018-06-23T00:49:59.895Z,13.50
2018-06-23T00:54:50.776Z,13.40
2018-06-23T00:59:41.689Z,13.40
2018-06-23T01:04:32.589Z,13.40
2018-06-23T01:09:23.508Z,13.30
2018-06-23T01:14:14.390Z,13.30
2018-06-23T01:19:06.011Z,13.20
2018-06-23T01:23:56.895Z,13.20
2018-06-23T01:28:47.776Z,13.20
2018-06-23T01:33:39.405Z,13.20
2018-06-23T01:38:31.083Z,13.10
2018-06-23T01:43:21.991Z,13.10
2018-06-23T01:48:12.881Z,13.10
2018-06-23T01:53:04.511Z,13.10
2018-06-23T01:57:56.140Z,13.00
2018-06-23T02:02:47.766Z,13.00
2018-06-23T02:07:39.399Z,13.00
2018-06-23T02:12:31.036Z,12.90
2018-06-23T02:22:59.300Z,12.90
2018-06-23T02:33:08.928Z,12.90
2018-06-23T02:37:59.807Z,12.90
2018-06-23T02:42:50.696Z,12.80
2018-06-23T02:47:42.352Z,12.70
2018-06-23T02:52:33.231Z,12.70
2018-06-23T02:57:24.125Z,12.60
2018-06-23T03:02:15.013Z,12.60
2018-06-23T03:07:05.891Z,12.60
2018-06-23T03:11:57.543Z,12.50
2018-06-23T03:16:49.180Z,12.50
2018-06-23T03:21:40.817Z,12.50
2018-06-23T03:26:32.472Z,12.50
2018-06-23T03:31:23.372Z,12.50
2018-06-23T03:36:15.008Z,12.50
2018-06-23T03:41:06.644Z,12.50
2018-06-23T03:45:58.283Z,12.50
2018-06-23T03:50:49.923Z,12.50
2018-06-23T03:55:40.816Z,12.40
2018-06-23T04:00:32.465Z,12.50
2018-06-23T04:05:24.101Z,12.50
2018-06-23T04:10:15.743Z,12.50
2018-06-23T04:15:07.393Z,12.50
2018-06-23T04:19:58.275Z,12.50
2018-06-23T04:24:49.164Z,12.50
2018-06-23T04:29:40.056Z,12.50
2018-06-23T04:34:30.956Z,12.60
2018-06-23T04:39:21.846Z,12.60
2018-06-23T04:44:12.726Z,12.60
2018-06-23T04:49:03.611Z,12.70
2018-06-23T04:53:54.500Z,12.70
2018-06-23T04:58:45.423Z,12.80
2018-06-23T05:03:37.059Z,13.10
2018-06-23T05:08:28.682Z,13.20
2018-06-23T05:13:19.592Z,13.20
2018-06-23T05:18:11.255Z,13.40
2018-06-23T05:23:02.878Z,13.40
2018-06-23T05:27:53.768Z,13.40
2018-06-23T05:32:44.663Z,13.50
2018-06-23T05:37:35.767Z,13.50
2018-06-23T05:42:26.667Z,13.50
2018-06-23T05:47:18.304Z,13.60
2018-06-23T05:52:09.962Z,13.70
2018-06-23T05:57:00.844Z,13.70
2018-06-23T06:01:52.491Z,13.80
2018-06-23T06:06:44.114Z,13.90
2018-06-23T06:11:35.009Z,13.90
2018-06-23T06:16:25.896Z,13.90
2018-06-23T06:21:16.791Z,13.90
2018-06-23T06:26:08.444Z,14.00
2018-06-23T06:30:59.403Z,14.00
2018-06-23T06:35:50.292Z,14.00
2018-06-23T06:40:41.180Z,14.10
2018-06-23T06:45:32.839Z,14.10
2018-06-23T06:50:23.793Z,14.10
2018-06-23T06:55:14.688Z,14.10
2018-06-23T07:00:05.567Z,14.00
2018-06-23T07:04:57.249Z,13.90
2018-06-23T07:09:48.144Z,13.90
2018-06-23T07:14:39.040Z,13.90
2018-06-23T07:19:30.664Z,13.90
2018-06-23T07:24:22.297Z,13.90
2018-06-23T07:29:13.188Z,13.80
2018-06-23T07:34:04.065Z,13.80
2018-06-23T07:38:54.946Z,13.90
2018-06-23T07:43:45.831Z,13.90
2018-06-23T07:48:36.724Z,13.90
2018-06-23T07:53:27.620Z,13.90
2018-06-23T07:58:19.244Z,13.90
2018-06-23T08:03:10.941Z,13.90
2018-06-23T08:08:01.861Z,13.90
2018-06-23T08:12:52.751Z,13.90
2018-06-23T08:17:43.644Z,13.90
2018-06-23T08:22:35.272Z,14.00
2018-06-23T08:27:26.903Z,14.10
2018-06-23T08:32:18.531Z,14.20
2018-06-23T08:37:09.425Z,14.10
2018-06-23T08:42:00.300Z,14.20
2018-06-23T08:46:51.188Z,14.40
2018-06-23T08:51:42.820Z,14.60
2018-06-23T08:56:33.702Z,14.60
2018-06-23T09:01:24.584Z,14.80
2018-06-23T09:06:15.481Z,14.90
2018-06-23T09:11:07.136Z,15.10
2018-06-23T09:15:58.128Z,15.10
2018-06-23T09:20:49.016Z,15.20
2018-06-23T09:25:39.901Z,15.30
2018-06-23T09:30:30.792Z,15.50
2018-06-23T09:35:22.483Z,15.80
2018-06-23T09:40:13.433Z,15.70
2018-06-23T09:45:05.079Z,16.10
2018-06-23T09:49:56.719Z,16.30
2018-06-23T09:54:55.524Z,16.50
2018-06-23T09:59:47.904Z,16.60
2018-06-23T10:04:38.791Z,16.60
2018-06-23T10:09:30.436Z,17.00
2018-06-23T10:14:22.156Z,17.10
2018-06-23T10:19:13.048Z,17.10
2018-06-23T10:24:03.939Z,17.30
2018-06-23T10:28:54.837Z,17.40
2018-06-23T10:33:45.744Z,17.60
2018-06-23T10:38:37.526Z,18.10
2018-06-23T10:43:29.541Z,17.90
2018-06-23T10:48:20.426Z,18.20
2018-06-23T10:53:11.315Z,18.40
2018-06-23T10:58:02.196Z,18.60
2018-06-23T11:02:53.093Z,18.80
2018-06-23T11:07:44.721Z,19.20
2018-06-23T11:12:35.624Z,19.20
2018-06-23T11:17:26.524Z,19.50
2018-06-23T11:22:17.415Z,19.70
2018-06-23T11:27:08.303Z,19.90
2018-06-23T11:31:59.940Z,20.40
2018-06-23T11:36:51.575Z,20.70
2018-06-23T11:41:43.212Z,20.90
2018-06-23T11:46:34.889Z,21.00
2018-06-23T11:51:25.762Z,20.90
2018-06-23T11:56:17.404Z,20.90
2018-06-23T12:01:09.035Z,20.70
2018-06-23T12:06:00.668Z,20.50
2018-06-23T12:10:52.299Z,20.30
2018-06-23T12:15:43.931Z,20.10
2018-06-23T12:20:35.564Z,20.00
2018-06-23T12:25:26.517Z,20.00
2018-06-23T12:30:17.375Z,19.90
2018-06-23T12:35:08.247Z,20.00
2018-06-23T12:39:59.153Z,20.00
2018-06-23T12:44:50.780Z,20.10
2018-06-23T12:49:42.412Z,20.20
2018-06-23T12:54:34.032Z,20.20
2018-06-23T12:59:24.925Z,20.20
2018-06-23T13:04:15.828Z,20.20
2018-06-23T13:09:06.716Z,20.20
2018-06-23T13:13:57.603Z,20.10
2018-06-23T13:18:48.496Z,20.00
2018-06-23T13:23:39.381Z,20.00
2018-06-23T13:28:30.267Z,19.90
2018-06-23T13:33:21.900Z,19.70
2018-06-23T13:38:12.815Z,19.70
2018-06-23T13:43:03.695Z,19.60
2018-06-23T13:47:54.572Z,19.40
2018-06-23T13:52:46.205Z,19.10
2018-06-23T13:57:37.832Z,19.00
2018-06-23T14:02:29.456Z,18.90
2018-06-23T14:07:20.336Z,18.80
2018-06-23T14:12:11.230Z,18.70
2018-06-23T14:17:02.117Z,18.70
2018-06-23T14:21:53.740Z,18.60
2018-06-23T14:26:44.627Z,18.60
2018-06-23T14:31:35.680Z,18.70
2018-06-23T14:36:26.423Z,18.70
2018-06-23T14:41:17.303Z,18.80
2018-06-23T14:46:08.180Z,18.90
2018-06-23T14:50:59.073Z,19.00
2018-06-23T14:55:50.716Z,19.00
2018-06-23T15:00:41.604Z,19.00
2018-06-23T15:05:32.495Z,19.00
2018-06-23T15:15:50.009Z,18.70
2018-06-23T15:20:41.639Z,18.50
2018-06-23T15:25:33.264Z,18.40
2018-06-23T15:30:24.156Z,18.30
2018-06-23T15:35:15.045Z,18.10
2018-06-23T15:40:05.939Z,18.00
2018-06-23T15:44:56.831Z,17.80
2018-06-23T15:49:47.707Z,17.70
2018-06-23T15:54:38.587Z,17.60
2018-06-23T15:59:30.240Z,17.40
2018-06-23T16:04:21.116Z,17.30
2018-06-23T16:09:12.008Z,17.40
2018-06-23T16:14:02.899Z,17.40
2018-06-23T16:18:53.985Z,17.40
2018-06-23T16:23:44.851Z,17.40
2018-06-23T16:28:35.793Z,17.40
2018-06-23T16:33:26.636Z,17.50
2018-06-23T16:38:17.515Z,17.50
2018-06-23T16:43:08.405Z,17.50
2018-06-23T16:47:59.304Z,17.50
2018-06-23T16:52:50.937Z,17.40
2018-06-23T16:57:42.567Z,17.40
2018-06-23T17:02:34.195Z,17.40
2018-06-23T17:07:25.079Z,17.40
2018-06-23T17:12:15.976Z,17.40
2018-06-23T17:17:06.860Z,17.30
2018-06-23T17:21:58.536Z,17.20
2018-06-23T17:26:49.421Z,17.20
2018-06-23T17:31:41.043Z,17.00
2018-06-23T17:36:32.670Z,16.90
2018-06-23T17:41:23.556Z,16.90
2018-06-23T17:46:14.452Z,16.80
2018-06-23T17:51:06.075Z,16.60
2018-06-23T17:55:56.968Z,16.60
2018-06-23T18:00:48.591Z,16.40
2018-06-23T18:05:39.480Z,16.40
2018-06-23T18:10:30.368Z,16.30
2018-06-23T18:15:21.242Z,16.20
2018-06-23T18:20:12.124Z,16.10
2018-06-23T18:25:03.001Z,16.00
2018-06-23T18:29:54.619Z,15.90
2018-06-23T18:34:45.492Z,15.80
2018-06-23T18:39:36.376Z,15.80
2018-06-23T18:44:27.999Z,15.50
2018-06-23T18:49:19.627Z,15.50
2018-06-23T18:54:17.549Z,15.40
2018-06-23T18:59:08.437Z,15.40
2018-06-23T19:04:00.055Z,15.20
2018-06-23T19:08:51.757Z,15.10
2018-06-23T19:13:43.341Z,15.00
2018-06-23T19:18:34.971Z,14.90
2018-06-23T19:23:25.843Z,14.90
2018-06-23T19:28:16.733Z,14.80
2018-06-23T19:33:07.625Z,14.70
2018-06-23T19:37:59.257Z,14.60
2018-06-23T19:42:50.153Z,14.60
2018-06-23T19:47:41.032Z,14.50
2018-06-23T19:52:31.919Z,14.50
2018-06-23T19:57:23.539Z,14.30
2018-06-23T20:02:14.424Z,14.30
2018-06-23T20:07:05.308Z,14.30
2018-06-23T20:11:56.209Z,14.30
2018-06-23T20:16:47.831Z,14.20
2018-06-23T20:21:38.719Z,14.10
2018-06-23T20:26:29.607Z,14.10
2018-06-23T20:31:20.498Z,14.10
2018-06-23T20:36:12.122Z,14.00
2018-06-23T20:41:03.006Z,14.00
2018-06-23T20:45:53.896Z,14.00
2018-06-23T20:50:44.813Z,13.90
2018-06-23T20:55:35.709Z,13.90
2018-06-23T21:00:27.335Z,13.80
2018-06-23T21:05:18.967Z,13.80
2018-06-23T21:10:09.860Z,13.80
2018-06-23T21:15:00.756Z,13.80
2018-06-23T21:19:51.638Z,13.80
2018-06-23T21:24:43.280Z,13.70
2018-06-23T21:29:34.180Z,13.70
2018-06-23T21:34:25.808Z,13.70
2018-06-23T21:39:16.696Z,13.70
2018-06-23T21:44:07.593Z,13.70
2018-06-23T21:48:58.487Z,13.70
2018-06-23T21:53:49.370Z,13.60
2018-06-23T21:58:40.272Z,13.60
2018-06-23T22:03:31.164Z,13.60
2018-06-23T22:08:22.066Z,13.60
2018-06-23T22:13:12.960Z,13.50
2018-06-23T22:18:04.583Z,13.60
2018-06-23T22:22:55.556Z,13.50
2018-06-23T22:27:46.434Z,13.50
2018-06-23T22:32:38.068Z,13.50
2018-06-23T22:37:29.696Z,13.50
2018-06-23T22:42:21.328Z,13.40
2018-06-23T22:47:12.212Z,13.50
2018-06-23T22:52:03.096Z,13.40
2018-06-23T22:56:53.988Z,13.40
2018-06-23T23:01:45.627Z,13.40
2018-06-23T23:06:37.268Z,13.40
2018-06-23T23:11:28.907Z,13.40
2018-06-23T23:16:19.796Z,13.40
2018-06-23T23:21:12.167Z,13.40
2018-06-23T23:26:03.793Z,13.40
2018-06-23T23:30:55.433Z,13.30
2018-06-23T23:35:47.063Z,13.30
2018-06-23T23:40:37.939Z,13.30
2018-06-23T23:45:28.840Z,13.30
2018-06-23T23:50:19.735Z,13.30
2018-06-23T23:55:11.376Z,13.30
